Time;durP1;ratioP1;P1;durP2;ratioP2;P2;SDS_P1;SDS_P2;PMS_P1;PMS_P2;Temp;Humidity;BMP_temperature;BMP_pressure;BME280_temperature;BME280_humidity;BME280_pressure;Samples;Min_cycle;Max_cycle;Signal;HPM_P1;HPM_P2
2022/04/04 00:01:45;;;;;;;7.53;4.13;;;;;;;3.27;70.54;101163.78;5061742;28;20089;-70
2022/04/04 00:04:12;;;;;;;7.28;4.38;;;;;;;3.31;70.54;101165.44;5065471;28;20066;-70
2022/04/04 00:06:38;;;;;;;8.45;4.57;;;;;;;3.22;70.66;101158.66;5067437;28;20056;-70
2022/04/04 00:09:05;;;;;;;7.18;4.00;;;;;;;3.00;71.52;101161.56;5066708;28;20522;-70
2022/04/04 00:11:31;;;;;;;6.78;4.30;;;;;;;3.07;71.03;101158.06;5067855;28;20458;-70
2022/04/04 00:13:58;;;;;;;8.27;4.53;;;;;;;3.25;70.24;101157.78;5065873;28;20118;-70
2022/04/04 00:16:24;;;;;;;7.03;4.60;;;;;;;2.79;72.38;101153.22;5067454;28;20044;-70
2022/04/04 00:18:52;;;;;;;9.27;4.32;;;;;;;3.17;71.05;101150.13;5066634;28;20090;-70
2022/04/04 00:21:19;;;;;;;7.78;4.40;;;;;;;3.12;70.91;101146.72;5067710;28;20098;-70
2022/04/04 00:23:45;;;;;;;7.93;4.63;;;;;;;3.14;70.92;101157.91;5067243;28;20040;-70
2022/04/04 00:26:11;;;;;;;8.57;4.80;;;;;;;3.07;71.29;101145.91;5067792;28;20094;-70
2022/04/04 00:28:38;;;;;;;6.78;4.00;;;;;;;3.00;71.52;101152.06;5067669;28;20133;-70
2022/04/04 00:31:04;;;;;;;10.30;4.47;;;;;;;2.98;71.88;101159.03;5067142;28;20060;-70
2022/04/04 00:33:31;;;;;;;7.95;4.80;;;;;;;3.22;71.03;101145.69;5066201;28;20052;-70
2022/04/04 00:35:59;;;;;;;7.75;4.70;;;;;;;3.08;71.67;101149.38;5065734;28;20044;-70
2022/04/04 00:38:25;;;;;;;5.35;3.13;;;;;;;3.00;72.24;101153.81;5053249;28;20049;-70
2022/04/04 00:40:51;;;;;;;8.23;5.15;;;;;;;2.97;72.03;101159.88;5067260;28;20048;-70
2022/04/04 00:43:18;;;;;;;5.85;3.85;;;;;;;3.04;71.71;101158.94;5066504;28;20044;-70
2022/04/04 00:45:45;;;;;;;6.65;4.30;;;;;;;2.83;72.88;101144.56;5059311;28;20630;-70
2022/04/04 00:48:12;;;;;;;9.10;4.53;;;;;;;3.18;71.82;101146.63;5061461;28;20041;-70
2022/04/04 00:50:38;;;;;;;6.55;3.33;;;;;;;3.02;72.28;101139.13;5065300;28;20056;-70
2022/04/04 00:53:08;;;;;;;9.88;4.35;;;;;;;3.03;72.47;101138.25;5063832;28;20094;-70
2022/04/04 00:55:35;;;;;;;6.80;3.63;;;;;;;2.92;72.60;101143.53;5066168;28;20527;-70
2022/04/04 00:58:01;;;;;;;7.70;4.28;;;;;;;2.96;72.62;101139.22;5062684;28;20466;-70
2022/04/04 01:00:29;;;;;;;8.57;5.10;;;;;;;2.99;72.38;101145.19;5066593;28;20048;-70
2022/04/04 01:02:55;;;;;;;8.07;4.80;;;;;;;3.15;71.83;101132.84;5067315;28;20049;-70
2022/04/04 01:05:22;;;;;;;6.53;4.40;;;;;;;3.05;71.76;101129.56;5067147;28;20060;-70
2022/04/04 01:07:48;;;;;;;7.13;3.90;;;;;;;2.93;72.15;101135.75;5061453;28;20117;-70
2022/04/04 01:10:16;;;;;;;8.15;4.60;;;;;;;2.80;72.33;101133.38;5054706;28;20040;-70
2022/04/04 01:12:51;;;;;;;11.30;5.03;;;;;;;2.31;73.12;101139.19;5050745;28;20049;-70
2022/04/04 01:15:17;;;;;;;13.55;4.65;;;;;;;2.17;73.88;101138.47;5059514;28;20401;-70
2022/04/04 01:17:45;;;;;;;9.98;5.22;;;;;;;1.73;75.28;101128.59;5070382;28;20060;-70
2022/04/04 01:20:12;;;;;;;7.35;4.28;;;;;;;1.77;75.26;101125.13;5070333;28;20064;-70
2022/04/04 01:22:38;;;;;;;10.73;5.13;;;;;;;1.69;75.65;101124.31;5070829;28;20086;-70
2022/04/04 01:25:09;;;;;;;9.52;4.93;;;;;;;1.36;76.77;101122.03;5070995;28;20593;-70
2022/04/04 01:27:35;;;;;;;9.13;5.50;;;;;;;1.05;77.66;101120.53;5070277;28;20064;-70
2022/04/04 01:30:02;;;;;;;7.72;5.05;;;;;;;1.47;76.49;101120.22;5070024;28;20420;-70
2022/04/04 01:32:28;;;;;;;10.43;4.88;;;;;;;1.61;75.89;101123.53;5070979;28;20048;-70
2022/04/04 01:34:54;;;;;;;9.45;5.28;;;;;;;1.43;75.85;101118.53;5070907;28;20048;-70
2022/04/04 01:37:21;;;;;;;8.40;5.28;;;;;;;1.77;74.60;101119.94;5068555;28;20541;-73
2022/04/04 01:39:47;;;;;;;7.53;4.82;;;;;;;1.74;74.46;101119.09;5065026;28;20102;-72
2022/04/04 01:42:15;;;;;;;8.18;5.07;;;;;;;1.68;74.57;101114.84;5070905;28;20060;-72
2022/04/04 01:44:41;;;;;;;8.45;5.25;;;;;;;1.38;75.61;101115.09;5069409;28;20064;-72
2022/04/04 01:47:08;;;;;;;10.18;6.05;;;;;;;1.06;77.06;101115.38;5070407;28;20052;-72
2022/04/04 01:49:34;;;;;;;9.93;6.18;;;;;;;1.26;76.47;101104.88;5067573;28;20093;-73
2022/04/04 01:52:00;;;;;;;10.50;5.53;;;;;;;1.34;75.95;101100.50;5070170;28;20052;-72
2022/04/04 01:54:27;;;;;;;8.50;5.70;;;;;;;1.17;76.44;101095.50;5070510;28;20044;-72
2022/04/04 01:56:53;;;;;;;9.80;5.63;;;;;;;1.23;76.59;101090.25;5070345;28;20049;-72
2022/04/04 01:59:21;;;;;;;8.50;5.93;;;;;;;1.20;76.35;101090.28;5069833;28;20040;-73
2022/04/04 02:01:47;;;;;;;11.23;5.75;;;;;;;0.87;77.78;101086.22;5070791;28;20040;-72
2022/04/04 02:04:13;;;;;;;8.55;5.72;;;;;;;1.15;76.42;101078.25;5070435;28;20074;-72
2022/04/04 02:06:40;;;;;;;11.23;5.57;;;;;;;1.44;75.75;101078.91;5070313;28;20488;-72
2022/04/04 02:09:06;;;;;;;9.93;5.95;;;;;;;0.94;77.51;101077.56;5068806;28;20041;-72
2022/04/04 02:11:34;;;;;;;8.15;5.57;;;;;;;1.17;77.01;101068.78;5069951;28;20048;-72
2022/04/04 02:14:02;;;;;;;10.65;5.97;;;;;;;1.30;75.92;101066.09;5069810;28;20049;-73
2022/04/04 02:16:30;;;;;;;8.40;5.32;;;;;;;1.00;77.42;101063.75;5070109;28;20534;-73
2022/04/04 02:18:56;;;;;;;9.68;5.70;;;;;;;0.76;78.31;101061.34;5067581;28;20048;-73
2022/04/04 02:21:23;;;;;;;9.23;6.30;;;;;;;0.77;78.26;101058.78;5068363;28;20060;-73
2022/04/04 02:23:51;;;;;;;12.15;6.57;;;;;;;0.42;79.87;101055.53;5069829;28;20048;-72
2022/04/04 02:26:17;;;;;;;7.80;5.60;;;;;;;1.08;78.03;101053.38;5070390;28;20052;-72
2022/04/04 02:28:44;;;;;;;9.57;5.68;;;;;;;1.71;74.85;101050.19;5069613;28;20458;-72
2022/04/04 02:31:10;;;;;;;9.23;6.22;;;;;;;1.32;75.87;101042.84;5069382;28;20044;-72
2022/04/04 02:33:38;;;;;;;10.23;5.60;;;;;;;1.39;75.82;101049.66;5066145;28;20114;-72
2022/04/04 02:36:05;;;;;;;9.55;5.90;;;;;;;1.91;73.49;101035.31;5069541;28;20416;-72
2022/04/04 02:38:31;;;;;;;13.02;5.38;;;;;;;2.12;72.83;101030.75;5069596;28;20041;-72
2022/04/04 02:40:59;;;;;;;10.10;6.93;;;;;;;1.45;74.39;101031.50;5069106;28;20052;-72
2022/04/04 02:43:25;;;;;;;11.15;6.32;;;;;;;1.19;76.77;101024.00;5069135;28;20048;-72
2022/04/04 02:45:51;;;;;;;11.48;6.55;;;;;;;1.44;75.52;101024.66;5069380;28;20462;-72
2022/04/04 02:48:18;;;;;;;10.18;4.88;;;;;;;1.66;74.82;101017.53;5068629;28;20093;-72
2022/04/04 02:50:48;;;;;;;8.40;5.20;;;;;;;1.77;74.65;101008.78;5068513;28;20094;-72
2022/04/04 02:53:15;;;;;;;10.20;5.75;;;;;;;2.04;73.69;101009.28;5069259;28;20045;-72
2022/04/04 02:58:25;;;;;;;8.98;5.05;;;;;;;2.16;73.49;100996.19;5068546;28;20126;-72
2022/04/04 03:00:52;;;;;;;10.00;5.93;;;;;;;2.06;73.98;100994.63;5068578;28;20098;-72
2022/04/04 03:03:19;;;;;;;7.30;5.05;;;;;;;2.38;72.77;100990.72;5069101;28;20098;-72
2022/04/04 03:05:47;;;;;;;10.02;5.32;;;;;;;2.42;72.53;100988.94;5069169;28;20040;-74
2022/04/04 03:08:13;;;;;;;8.68;4.88;;;;;;;2.54;72.17;100986.19;5068260;28;20050;-73
2022/04/04 03:10:39;;;;;;;9.00;5.53;;;;;;;2.43;72.47;100980.31;5068362;28;20483;-73
2022/04/04 03:13:06;;;;;;;8.07;5.10;;;;;;;2.47;72.63;100981.97;5069065;28;20397;-73
2022/04/04 03:15:35;;;;;;;13.02;5.85;;;;;;;2.18;73.65;100982.38;5068690;28;20543;-73
2022/04/04 03:18:02;;;;;;;10.15;6.05;;;;;;;1.86;74.88;100985.38;5066777;28;20056;-73
2022/04/04 03:20:30;;;;;;;11.32;5.35;;;;;;;2.02;74.61;100977.44;5066867;28;20041;-73
2022/04/04 03:23:00;;;;;;;10.63;6.45;;;;;;;2.07;74.55;100966.13;5068828;28;20060;-73
2022/04/04 03:25:27;;;;;;;9.60;6.38;;;;;;;2.07;74.29;100967.91;5068626;28;20048;-73
2022/04/04 03:27:54;;;;;;;11.07;6.38;;;;;;;2.17;74.41;100964.28;5068368;28;20078;-73
2022/04/04 03:30:23;;;;;;;9.23;5.90;;;;;;;2.18;74.26;100964.25;5047661;28;20052;-73
2022/04/04 03:32:51;;;;;;;8.35;5.40;;;;;;;2.20;74.18;100959.94;5059077;28;20041;-73
2022/04/04 03:35:19;;;;;;;9.57;5.85;;;;;;;2.15;74.47;100959.13;5068654;28;20044;-73
2022/04/04 03:37:48;;;;;;;8.77;5.57;;;;;;;2.12;74.57;100951.41;5068221;28;20090;-73
2022/04/04 03:40:16;;;;;;;9.50;5.30;;;;;;;2.19;74.26;100949.59;5066955;28;20051;-73
2022/04/04 03:42:44;;;;;;;10.10;6.32;;;;;;;2.23;73.96;100951.25;5068425;28;20492;-73
2022/04/04 03:45:12;;;;;;;9.73;6.43;;;;;;;2.26;74.07;100943.44;5068413;28;20052;-73
2022/04/04 03:47:39;;;;;;;11.20;7.03;;;;;;;2.36;73.47;100942.47;5066826;28;20052;-73
2022/04/04 03:50:06;;;;;;;11.98;6.75;;;;;;;2.40;73.23;100946.72;5066818;28;20067;-73
2022/04/04 03:52:34;;;;;;;11.57;6.57;;;;;;;2.34;73.46;100939.88;5068195;28;20045;-73
2022/04/04 03:55:00;;;;;;;11.32;7.28;;;;;;;2.37;73.44;100928.63;5068101;28;20072;-73
2022/04/04 03:57:28;;;;;;;12.13;6.28;;;;;;;2.24;73.90;100927.97;5068170;28;20044;-73
2022/04/04 03:59:55;;;;;;;10.73;6.18;;;;;;;2.10;74.29;100926.47;5067248;28;20053;-72
2022/04/04 04:02:21;;;;;;;13.60;8.88;;;;;;;2.00;74.95;100922.28;5068334;28;20090;-72
2022/04/04 04:04:48;;;;;;;9.85;6.10;;;;;;;2.13;74.70;100923.81;5060388;28;20040;-72
2022/04/04 04:07:16;;;;;;;12.13;6.70;;;;;;;2.17;74.40;100910.84;5068049;28;20098;-72
2022/04/04 04:09:42;;;;;;;9.23;5.97;;;;;;;2.30;73.86;100911.47;5067036;28;20040;-72
2022/04/04 04:12:10;;;;;;;10.80;7.10;;;;;;;2.18;74.10;100906.53;5067970;28;20044;-72
2022/04/04 04:14:38;;;;;;;14.02;8.75;;;;;;;2.15;74.05;100898.78;5067726;28;20045;-72
2022/04/04 04:17:05;;;;;;;14.35;7.90;;;;;;;2.13;74.36;100892.78;5067648;28;20646;-72
2022/04/04 04:22:15;;;;;;;11.25;7.63;;;;;;;1.90;75.42;100878.47;5067505;28;20067;-72
2022/04/04 04:24:41;;;;;;;13.07;7.95;;;;;;;1.94;75.04;100880.13;5067975;28;20101;-72
2022/04/04 04:27:08;;;;;;;15.32;8.50;;;;;;;1.76;76.28;100869.19;5067752;28;20052;-72
2022/04/04 04:29:34;;;;;;;18.75;9.48;;;;;;;1.72;76.19;100870.09;5066633;28;20044;-73
2022/04/04 04:32:02;;;;;;;13.98;9.32;;;;;;;2.08;74.80;100866.13;5067820;28;20052;-73
2022/04/04 04:34:29;;;;;;;12.80;8.43;;;;;;;2.27;74.16;100867.56;5065476;28;20094;-73
2022/04/04 04:36:55;;;;;;;11.57;7.35;;;;;;;2.26;74.08;100869.28;5067560;28;20044;-73
2022/04/04 04:39:22;;;;;;;15.98;9.30;;;;;;;2.28;74.21;100864.97;5058522;28;20094;-73
2022/04/04 04:41:49;;;;;;;12.40;7.30;;;;;;;2.19;74.48;100854.75;5048216;28;20056;-73
2022/04/04 04:44:15;;;;;;;13.65;9.00;;;;;;;2.42;73.90;100856.97;5052597;28;20095;-73
2022/04/04 04:46:42;;;;;;;14.05;9.15;;;;;;;2.35;74.01;100856.22;5071394;28;20447;-73
2022/04/04 04:49:10;;;;;;;14.13;7.90;;;;;;;2.22;74.58;100859.00;5070426;28;20056;-73
2022/04/04 04:51:36;;;;;;;15.73;9.45;;;;;;;2.28;74.52;100854.59;5071380;28;20111;-73
2022/04/04 04:54:03;;;;;;;11.48;7.78;;;;;;;2.39;74.07;100847.53;5068539;28;20041;-73
2022/04/04 04:56:31;;;;;;;12.90;7.57;;;;;;;2.07;75.64;100844.56;5070185;28;20044;-73
2022/04/04 04:58:57;;;;;;;17.70;9.77;;;;;;;2.14;75.46;100840.19;5070128;28;20045;-73
2022/04/04 05:01:24;;;;;;;14.15;8.52;;;;;;;2.15;75.34;100834.97;5071652;28;20052;-73
2022/04/04 05:03:51;;;;;;;12.05;8.50;;;;;;;2.54;74.24;100838.66;5071679;28;20105;-73
2022/04/04 05:06:18;;;;;;;16.45;9.63;;;;;;;2.42;74.77;100834.53;5071153;28;20045;-73
2022/04/04 05:08:45;;;;;;;18.48;10.10;;;;;;;2.49;74.80;100824.06;5070373;28;20049;-73
2022/04/04 05:11:12;;;;;;;21.15;11.52;;;;;;;2.39;74.93;100828.56;5070634;28;20056;-73
2022/04/04 05:13:38;;;;;;;16.77;9.98;;;;;;;2.52;74.71;100827.44;5071418;28;20117;-73
2022/04/04 05:16:10;;;;;;;19.00;9.45;;;;;;;2.59;74.59;100826.44;5070969;28;20082;-73
2022/04/04 05:18:36;;;;;;;18.98;11.73;;;;;;;2.56;74.68;100816.16;5069308;28;20053;-74
2022/04/04 05:21:03;;;;;;;17.38;10.60;;;;;;;2.53;75.17;100812.78;5070365;28;20499;-73
2022/04/04 05:23:30;;;;;;;19.63;11.23;;;;;;;2.69;74.47;100815.06;5071106;28;20045;-73
2022/04/04 05:25:57;;;;;;;17.15;8.73;;;;;;;2.89;73.66;100810.34;5071004;28;20070;-73
2022/04/04 05:28:23;;;;;;;20.13;11.93;;;;;;;2.73;74.01;100816.72;5070674;28;20037;-73
2022/04/04 05:30:49;;;;;;;18.40;11.30;;;;;;;3.07;73.01;100805.72;5070245;28;20044;-73
2022/04/04 05:33:16;;;;;;;17.58;9.73;;;;;;;3.11;73.00;100805.59;5068139;28;20107;-72
2022/04/04 05:35:42;;;;;;;19.33;11.35;;;;;;;3.24;72.51;100808.81;5068817;28;20049;-73
2022/04/04 05:38:09;;;;;;;19.35;10.20;;;;;;;3.53;71.31;100806.47;5069481;28;20098;-73
2022/04/04 05:40:37;;;;;;;18.00;10.98;;;;;;;3.50;71.29;100796.16;5068412;28;20466;-72
2022/04/04 05:43:04;;;;;;;15.77;9.77;;;;;;;3.49;71.07;100784.06;5070736;28;20067;-72
2022/04/04 05:45:30;;;;;;;19.10;11.18;;;;;;;3.30;72.09;100787.94;5070695;28;20040;-72
2022/04/04 05:47:56;;;;;;;13.05;7.88;;;;;;;3.42;71.61;100777.31;5070015;28;20461;-72
2022/04/04 05:50:23;;;;;;;21.58;12.30;;;;;;;3.35;72.09;100776.59;5069370;28;20110;-72
2022/04/04 05:52:49;;;;;;;16.95;10.45;;;;;;;3.65;70.95;100788.03;5069687;28;20044;-73
2022/04/04 05:55:18;;;;;;;17.90;11.43;;;;;;;3.91;70.15;100784.84;5068497;28;20044;-73
2022/04/04 05:57:46;;;;;;;15.45;9.23;;;;;;;3.82;70.06;100779.84;5069213;28;20470;-73
2022/04/04 06:00:14;;;;;;;16.48;10.18;;;;;;;3.59;70.67;100782.97;5068446;28;20049;-73
2022/04/04 06:02:42;;;;;;;16.73;10.60;;;;;;;3.86;70.33;100784.94;5069400;28;20153;-73
2022/04/04 06:05:09;;;;;;;14.05;9.73;;;;;;;3.89;69.80;100778.81;5066570;28;20568;-73
2022/04/04 06:07:37;;;;;;;16.25;9.13;;;;;;;4.09;69.21;100773.16;5067924;28;20488;-74
2022/04/04 06:10:06;;;;;;;18.98;10.88;;;;;;;4.05;69.11;100776.72;5065358;28;20062;-74
2022/04/04 06:12:34;;;;;;;14.18;9.05;;;;;;;4.12;68.73;100776.53;5065791;28;20067;-74
2022/04/04 06:15:02;;;;;;;19.25;10.82;;;;;;;3.73;70.32;100767.94;5068521;28;20053;-74
2022/04/04 06:17:28;;;;;;;19.30;12.77;;;;;;;3.85;69.71;100767.66;5053998;28;20037;-74
2022/04/04 06:19:55;;;;;;;15.98;9.13;;;;;;;3.94;69.92;100764.00;5065644;28;20052;-73
2022/04/04 06:22:22;;;;;;;19.75;9.70;;;;;;;4.03;69.44;100760.34;5068390;28;20071;-73
2022/04/04 06:24:49;;;;;;;15.50;9.63;;;;;;;3.96;69.76;100759.63;5059849;28;20041;-70
2022/04/04 06:27:16;;;;;;;15.77;9.05;;;;;;;4.23;69.17;100755.50;5069418;28;20048;-70
2022/04/04 06:29:42;;;;;;;15.50;10.23;;;;;;;4.45;67.89;100760.97;5069124;28;20464;-70
2022/04/04 06:32:10;;;;;;;16.92;10.43;;;;;;;4.33;67.94;100754.38;5069643;28;20074;-70
2022/04/04 06:34:36;;;;;;;18.77;12.07;;;;;;;4.50;68.29;100741.81;5069716;28;20041;-70
2022/04/04 06:37:04;;;;;;;16.60;10.70;;;;;;;4.78;66.64;100742.75;5068909;28;20462;-71
2022/04/04 06:39:30;;;;;;;13.90;9.68;;;;;;;4.75;66.28;100737.66;5068214;28;20044;-70
2022/04/04 06:41:57;;;;;;;15.35;10.02;;;;;;;4.67;66.40;100730.94;5069671;28;20113;-70
2022/04/04 06:44:35;;;;;;;15.13;11.00;;;;;;;4.83;66.31;100730.50;5068736;28;20045;-69
2022/04/04 06:47:05;;;;;;;19.45;10.77;;;;;;;4.84;66.12;100718.38;5059920;28;20136;-69
2022/04/04 06:49:33;;;;;;;15.27;9.65;;;;;;;4.99;66.36;100712.69;5068838;28;20496;-71
2022/04/04 06:51:59;;;;;;;14.02;9.73;;;;;;;4.99;65.94;100719.66;5069350;28;20052;-71
2022/04/04 06:54:27;;;;;;;13.65;8.75;;;;;;;4.84;65.53;100700.19;5067503;28;20090;-70
2022/04/04 06:56:53;;;;;;;12.55;8.88;;;;;;;4.88;64.36;100701.75;5068076;28;20059;-70
2022/04/04 06:59:20;;;;;;;15.82;10.05;;;;;;;4.90;63.78;100695.66;5068616;28;20044;-70
2022/04/04 07:01:47;;;;;;;16.05;9.00;;;;;;;4.86;63.79;100691.44;5069151;28;20040;-70
2022/04/04 07:04:14;;;;;;;11.55;8.07;;;;;;;5.00;63.79;100679.78;5068822;28;20660;-70
2022/04/04 07:06:42;;;;;;;16.40;10.25;;;;;;;5.36;63.12;100686.44;5064748;28;20086;-70
2022/04/04 07:09:08;;;;;;;14.40;9.27;;;;;;;5.79;62.32;100672.94;5065103;28;20709;-70
2022/04/04 07:11:35;;;;;;;13.25;9.43;;;;;;;6.04;61.07;100670.38;5068506;28;20047;-70
2022/04/04 07:14:02;;;;;;;13.82;9.07;;;;;;;6.07;61.02;100663.31;5067736;28;20048;-70
2022/04/04 07:16:29;;;;;;;13.10;7.78;;;;;;;5.95;61.28;100658.53;5067614;28;20048;-70
2022/04/04 07:18:55;;;;;;;12.45;8.65;;;;;;;5.78;60.92;100658.22;5066643;28;20056;-70
2022/04/04 07:21:22;;;;;;;11.93;7.43;;;;;;;5.66;61.57;100658.59;5069219;28;20432;-70
2022/04/04 07:23:50;;;;;;;15.27;7.22;;;;;;;5.62;61.63;100657.00;5068745;28;20536;-70
2022/04/04 07:26:19;;;;;;;18.52;7.47;;;;;;;5.55;61.66;100651.16;5064276;28;20826;-70
2022/04/04 07:28:46;;;;;;;12.15;8.75;;;;;;;5.77;61.22;100644.34;5064786;28;20048;-70
2022/04/04 07:31:13;;;;;;;13.35;6.70;;;;;;;5.98;60.18;100634.16;5063558;28;20510;-70
2022/04/04 07:33:39;;;;;;;10.20;6.97;;;;;;;6.10;59.28;100631.97;5066066;28;20500;-70
2022/04/04 07:36:06;;;;;;;9.25;5.88;;;;;;;6.30;58.44;100626.06;5066513;28;20044;-70
2022/04/04 07:38:33;;;;;;;9.02;5.85;;;;;;;6.78;57.09;100620.78;5065397;28;20048;-70
2022/04/04 07:41:01;;;;;;;10.60;6.68;;;;;;;6.90;55.57;100604.69;5051108;28;20044;-71
2022/04/04 07:43:27;;;;;;;10.65;7.30;;;;;;;7.47;54.28;100604.13;5068072;28;20040;-71
2022/04/04 07:45:54;;;;;;;10.10;6.78;;;;;;;7.61;54.72;100598.34;5067669;28;20049;-71
2022/04/04 07:48:20;;;;;;;11.20;7.40;;;;;;;7.90;53.72;100597.97;5068799;28;20045;-72
2022/04/04 07:50:46;;;;;;;9.77;6.10;;;;;;;7.78;51.51;100588.91;5065860;28;20052;-72
2022/04/04 07:53:13;;;;;;;10.05;6.57;;;;;;;7.83;52.82;100581.69;5068178;28;20051;-71
2022/04/04 07:55:40;;;;;;;12.38;8.15;;;;;;;7.88;51.96;100565.00;5065172;28;20045;-71
2022/04/04 07:58:08;;;;;;;10.75;6.95;;;;;;;8.04;51.18;100576.47;5066656;28;20068;-71
2022/04/04 08:00:34;;;;;;;14.52;7.72;;;;;;;7.84;51.33;100574.72;5057672;28;20531;-71
2022/04/04 08:03:01;;;;;;;10.82;7.72;;;;;;;7.86;52.34;100557.25;5060712;28;20102;-71
2022/04/04 08:05:27;;;;;;;11.88;6.88;;;;;;;7.81;51.25;100549.59;5065560;28;20097;-71
2022/04/04 08:07:53;;;;;;;10.35;6.88;;;;;;;7.71;51.45;100560.50;5066085;28;20129;-71
2022/04/04 08:10:21;;;;;;;8.02;5.97;;;;;;;7.96;50.55;100558.53;5067035;28;20459;-71
2022/04/04 08:12:47;;;;;;;9.65;6.55;;;;;;;8.26;51.16;100549.34;5064731;28;20064;-71
2022/04/04 08:15:15;;;;;;;8.85;6.10;;;;;;;8.21;49.73;100546.06;5064958;28;20048;-71
2022/04/04 08:17:42;;;;;;;12.57;7.78;;;;;;;8.09;49.68;100549.22;5066877;28;20086;-71
2022/04/04 08:20:10;;;;;;;7.90;6.13;;;;;;;8.04;51.22;100543.38;5066193;28;20056;-71
2022/04/04 08:22:40;;;;;;;12.27;7.53;;;;;;;8.41;49.61;100526.94;5065745;28;20067;-71
2022/04/04 08:25:08;;;;;;;8.55;6.00;;;;;;;8.12;51.08;100532.59;5065111;28;20105;-71
2022/04/04 08:27:35;;;;;;;11.48;7.97;;;;;;;8.23;50.43;100525.97;5061841;28;20041;-72
2022/04/04 08:30:04;;;;;;;11.52;7.22;;;;;;;8.20;50.80;100523.47;5058895;28;20528;-71
2022/04/04 08:32:32;;;;;;;11.45;5.78;;;;;;;7.87;50.14;100511.94;5066473;28;20079;-71
2022/04/04 08:34:59;;;;;;;9.15;6.15;;;;;;;8.02;49.97;100511.25;5066546;28;20127;-71
2022/04/04 08:37:25;;;;;;;9.02;6.38;;;;;;;8.43;48.93;100506.78;5067985;28;20037;-72
2022/04/04 08:39:52;;;;;;;16.85;6.97;;;;;;;8.56;49.46;100507.06;5065574;28;20488;-71
2022/04/04 08:42:21;;;;;;;7.32;5.38;;;;;;;8.58;48.27;100498.22;5066604;28;20044;-71
2022/04/04 08:44:49;;;;;;;10.60;5.85;;;;;;;8.60;47.76;100490.34;5056106;28;20041;-71
2022/04/04 08:47:18;;;;;;;12.10;7.28;;;;;;;8.10;49.15;100490.03;5064964;28;20048;-70
2022/04/04 08:49:46;;;;;;;9.20;5.18;;;;;;;8.31;49.01;100481.25;5065470;28;20054;-70
2022/04/04 08:52:12;;;;;;;8.82;6.38;;;;;;;8.35;48.37;100481.97;5056493;28;20049;-70
2022/04/04 08:54:39;;;;;;;10.27;5.60;;;;;;;8.53;48.55;100478.47;5064469;28;20061;-71
2022/04/04 08:57:05;;;;;;;7.57;5.45;;;;;;;8.66;47.87;100472.59;5063532;28;20094;-71
2022/04/04 08:59:31;;;;;;;8.00;5.78;;;;;;;8.38;47.93;100464.38;5061361;28;20068;-69
2022/04/04 09:01:58;;;;;;;10.77;5.50;;;;;;;8.62;48.13;100457.97;5065246;28;20048;-69
2022/04/04 09:04:24;;;;;;;8.30;6.20;;;;;;;8.80;47.95;100444.00;5065507;28;20052;-69
2022/04/04 09:06:53;;;;;;;9.90;5.75;;;;;;;8.96;45.96;100445.88;5065961;28;20102;-69
2022/04/04 09:09:21;;;;;;;7.95;5.88;;;;;;;8.38;46.63;100455.69;5065405;28;20110;-69
2022/04/04 09:12:05;;;;;;;9.75;5.88;;;;;;;8.58;47.32;100424.22;5056233;28;20067;-69
2022/04/04 09:14:35;;;;;;;8.10;5.25;;;;;;;8.59;47.38;100424.16;5065916;28;20052;-69
2022/04/04 09:17:02;;;;;;;8.30;5.97;;;;;;;8.45;47.57;100415.28;5066076;28;20555;-69
2022/04/04 09:19:29;;;;;;;10.80;6.47;;;;;;;8.47;47.48;100422.13;5066501;28;20078;-69
2022/04/04 09:21:57;;;;;;;9.45;6.03;;;;;;;8.26;47.34;100400.44;5066970;28;20064;-68
2022/04/04 09:24:43;;;;;;;9.93;5.18;;;;;;;8.60;46.06;100409.31;5065485;28;20049;-69
2022/04/04 09:27:11;;;;;;;9.85;5.45;;;;;;;8.29;47.35;100399.47;5064312;28;20044;-69
2022/04/04 09:29:41;;;;;;;8.05;5.35;;;;;;;8.43;47.12;100380.53;5061894;28;20049;-69
2022/04/04 09:32:11;;;;;;;7.95;5.60;;;;;;;8.52;46.87;100385.31;5069327;28;20068;-69
2022/04/04 09:34:52;;;;;;;10.68;6.03;;;;;;;8.59;46.47;100382.34;5069688;28;20043;-69
2022/04/04 09:37:21;;;;;;;7.45;4.97;;;;;;;8.23;46.28;100384.09;5065879;28;20677;-69
2022/04/04 09:39:47;;;;;;;7.90;4.95;;;;;;;7.99;46.65;100375.63;5069948;28;20040;-69
2022/04/04 09:42:15;;;;;;;7.25;5.63;;;;;;;8.06;46.66;100363.13;5070668;28;20056;-69
2022/04/04 09:44:41;;;;;;;8.05;5.00;;;;;;;8.01;46.88;100362.50;5070381;28;20054;-70
2022/04/04 09:47:08;;;;;;;13.68;5.68;;;;;;;7.73;46.87;100362.94;5069972;28;20401;-69
2022/04/04 09:49:39;;;;;;;8.00;4.38;;;;;;;7.79;47.17;100357.44;5069354;28;20474;-69
2022/04/04 09:52:05;;;;;;;5.35;3.92;;;;;;;7.68;48.29;100354.50;5070328;28;20056;-69
2022/04/04 09:54:33;;;;;;;7.47;4.45;;;;;;;7.51;48.11;100333.50;5070377;28;20101;-69
2022/04/04 09:57:11;;;;;;;7.43;4.78;;;;;;;7.50;48.08;100332.66;5069851;28;20048;-69
2022/04/04 09:59:38;;;;;;;10.60;3.83;;;;;;;7.40;47.98;100343.59;5067047;28;20048;-69
2022/04/04 10:02:05;;;;;;;9.98;4.15;;;;;;;7.48;47.45;100337.13;5069560;28;20128;-69
2022/04/04 10:04:33;;;;;;;7.22;4.13;;;;;;;7.24;47.23;100327.81;5068396;28;20139;-69
2022/04/04 10:07:03;;;;;;;5.20;3.63;;;;;;;7.20;48.02;100328.84;5068281;28;20118;-69
2022/04/04 10:09:29;;;;;;;5.03;3.75;;;;;;;7.09;48.32;100305.00;5066616;28;20048;-69
2022/04/04 10:11:58;;;;;;;6.38;4.05;;;;;;;6.88;49.49;100308.53;5070386;28;20045;-69
2022/04/04 10:14:25;;;;;;;7.78;3.42;;;;;;;6.79;50.31;100315.00;5069528;28;20463;-69
2022/04/04 10:16:52;;;;;;;9.25;3.40;;;;;;;6.84;49.79;100306.06;5069048;28;20060;-69
2022/04/04 10:19:19;;;;;;;8.02;3.42;;;;;;;6.91;50.28;100300.63;5060371;28;20090;-69
2022/04/04 10:21:46;;;;;;;5.93;3.50;;;;;;;6.92;51.13;100297.91;5068679;28;20497;-69
2022/04/04 10:24:14;;;;;;;5.45;3.05;;;;;;;6.97;50.30;100313.38;5069387;28;20057;-69
2022/04/04 10:26:41;;;;;;;8.00;3.28;;;;;;;6.86;51.66;100300.81;5068159;28;20052;-70
2022/04/04 10:29:12;;;;;;;7.22;4.38;;;;;;;6.95;52.38;100283.94;5056782;28;20130;-69
2022/04/04 10:31:44;;;;;;;5.95;3.53;;;;;;;6.48;54.21;100286.81;5061307;28;20412;-70
2022/04/04 10:34:13;;;;;;;8.23;4.37;;;;;;;6.26;55.95;100276.44;5067680;28;20048;-69
2022/04/04 10:36:54;;;;;;;8.10;3.55;;;;;;;6.02;57.13;100264.44;5069115;28;20163;-69
2022/04/04 10:39:32;;;;;;;6.10;3.70;;;;;;;6.21;58.13;100267.09;5068381;28;20045;-69
2022/04/04 10:41:59;;;;;;;5.47;3.28;;;;;;;6.21;57.04;100243.69;5052581;28;20068;-69
2022/04/04 10:44:47;;;;;;;4.95;3.17;;;;;;;6.20;57.01;100244.59;5068798;28;20044;-69
2022/04/04 10:47:20;;;;;;;6.57;3.70;;;;;;;5.86;58.89;100243.38;5067955;28;20056;-69
2022/04/04 10:49:47;;;;;;;4.50;3.40;;;;;;;5.79;59.01;100239.31;5067111;28;20054;-69
2022/04/04 10:52:14;;;;;;;4.63;3.05;;;;;;;5.73;59.86;100221.31;5068232;28;20049;-69
2022/04/04 10:54:40;;;;;;;6.53;3.42;;;;;;;5.69;60.25;100229.34;5056086;28;20571;-69
2022/04/04 10:57:16;;;;;;;4.43;2.85;;;;;;;5.20;61.35;100209.59;5051463;28;20193;-69
2022/04/04 10:59:45;;;;;;;9.57;3.75;;;;;;;4.98;61.35;100203.50;5064330;28;20041;-71
2022/04/04 11:02:14;;;;;;;4.30;2.90;;;;;;;5.18;61.41;100196.63;5068177;28;20389;-69
2022/04/04 11:07:38;;;;;;;5.32;3.58;;;;;;;5.25;60.02;100194.63;5066187;28;20519;-69
2022/04/04 11:07:41;;;;;;;4.47;2.33;;;;;;;5.43;59.90;100174.91;5068105;28;20071;-69
2022/04/04 11:10:09;;;;;;;6.13;3.42;;;;;;;5.12;61.23;100176.09;5066382;28;20052;-69
2022/04/04 11:12:56;;;;;;;5.38;3.67;;;;;;;4.96;61.07;100167.16;5062531;28;20049;-69
2022/04/04 11:15:42;;;;;;;5.78;3.20;;;;;;;5.23;59.95;100158.31;5066023;28;20443;-68
2022/04/04 11:18:10;;;;;;;6.80;3.35;;;;;;;5.25;60.66;100163.44;5057972;28;20045;-68
2022/04/04 11:20:46;;;;;;;5.18;3.60;;;;;;;5.15;60.24;100118.78;5060723;28;20122;-68
2022/04/04 11:23:13;;;;;;;6.40;3.65;;;;;;;5.07;60.45;100141.63;5059493;28;20131;-69
2022/04/04 11:25:48;;;;;;;5.20;3.20;;;;;;;5.18;60.46;100123.00;5050622;28;22176;-69
2022/04/04 11:28:15;;;;;;;5.20;3.40;;;;;;;5.13;60.48;100120.63;5047073;28;20491;-69
2022/04/04 11:30:42;;;;;;;11.98;3.20;;;;;;;5.24;61.08;100109.78;5050779;28;20090;-69
2022/04/04 11:33:17;;;;;;;7.72;4.25;;;;;;;5.17;60.87;100106.59;5064288;28;20049;-70
2022/04/04 11:35:47;;;;;;;7.63;2.92;;;;;;;5.20;61.67;100080.47;5066571;28;20131;-69
2022/04/04 11:38:15;;;;;;;5.43;3.58;;;;;;;5.35;61.16;100085.06;5066248;28;20048;-69